Ganser Bar, California
Current Conditions -  °F | °C
As of 3:47 PM on Monday 24 Nov 2014 (Local Time) from KCIC Reporting Station
Scattered Clouds Scattered Clouds  
Wind Chill: 63°   Ceiling: Unl
Heat Index: 63°   Visibility: 80mi
Dew Point: 39°   Wind: 5mph
Humidity: 42%   Direction: 310°NW
Pressure: 30.34"   Gusts: NA
Location:  40.0464°N, 121.282°W
Report Text: KCIC 242347Z 31004KT 80SM SCT250 17/04 A3034
Loading
Personal Weather Stations






























Interactive Weather Map New forecast layout! Learn more

10-Day Weather Forecast

Advertisements
Track Severe Weather on mobile